createdAt,value
2022-11-18T00:00:15.710Z,23.22
2022-11-18T00:02:43.056Z,23.02
2022-11-18T00:05:10.001Z,22.81
2022-11-18T00:07:36.982Z,22.47
2022-11-18T00:10:04.617Z,22.79
2022-11-18T00:12:50.266Z,22.64
2022-11-18T00:15:17.236Z,22.67
2022-11-18T00:17:44.512Z,22.80
2022-11-18T00:20:11.842Z,22.80
2022-11-18T00:22:38.777Z,22.31
2022-11-18T00:25:06.461Z,22.85
2022-11-18T00:27:33.757Z,22.43
2022-11-18T00:30:00.726Z,22.52
2022-11-18T00:32:28.075Z,22.65
2022-11-18T00:34:54.976Z,22.39
2022-11-18T00:37:22.526Z,22.68
2022-11-18T00:39:49.819Z,22.51
2022-11-18T00:42:35.592Z,22.10
2022-11-18T00:45:02.905Z,21.93
2022-11-18T00:47:30.206Z,22.24
2022-11-18T00:49:57.513Z,22.02
2022-11-18T00:52:24.815Z,21.75
2022-11-18T00:54:52.314Z,22.09
2022-11-18T00:57:19.662Z,22.09
2022-11-18T00:59:46.584Z,21.20
2022-11-18T01:02:13.897Z,22.24
2022-11-18T01:04:41.205Z,22.22
2022-11-18T01:07:08.100Z,22.07
2022-11-18T01:09:35.487Z,22.05
2022-11-18T01:12:21.360Z,22.42
2022-11-18T01:14:48.261Z,22.11
2022-11-18T01:17:15.311Z,22.14
2022-11-18T01:19:42.354Z,22.05
2022-11-18T01:22:09.683Z,22.50
2022-11-18T01:24:36.615Z,22.30
2022-11-18T01:27:04.092Z,22.39
2022-11-18T01:29:31.417Z,22.41
2022-11-18T01:34:45.650Z,21.67
2022-11-18T01:37:12.956Z,22.53
2022-11-18T01:39:40.313Z,22.33
2022-11-18T01:42:16.251Z,22.57
2022-11-18T01:45:04.803Z,21.58
2022-11-18T01:47:45.613Z,22.38
2022-11-18T01:50:15.459Z,22.54
2022-11-18T01:52:45.243Z,21.94
2022-11-18T01:55:26.416Z,22.14
2022-11-18T01:58:16.239Z,22.09
2022-11-18T02:00:43.252Z,21.54
2022-11-18T02:03:10.593Z,21.39
2022-11-18T02:05:38.426Z,21.66
2022-11-18T02:08:07.696Z,21.23
2022-11-18T02:10:34.810Z,21.35
2022-11-18T02:13:02.682Z,20.28
2022-11-18T02:16:02.281Z,20.70
2022-11-18T02:18:45.553Z,19.61
2022-11-18T02:21:39.086Z,19.52
2022-11-18T02:24:36.605Z,20.11
2022-11-18T02:27:47.074Z,20.34
2022-11-18T02:30:20.708Z,20.78
2022-11-18T02:33:11.325Z,20.05
2022-11-18T02:36:03.687Z,19.41
2022-11-18T02:38:42.892Z,19.15
2022-11-18T02:41:15.916Z,21.65
2022-11-18T02:44:09.566Z,19.23
2022-11-18T02:46:39.779Z,23.34
2022-11-18T02:49:15.729Z,21.11
2022-11-18T02:51:45.118Z,21.72
2022-11-18T02:54:13.862Z,24.33
2022-11-18T02:56:42.390Z,23.14
2022-11-18T02:59:09.684Z,29.30
2022-11-18T03:01:37.372Z,26.88
2022-11-18T03:04:04.751Z,26.79
2022-11-18T03:06:33.660Z,27.85
2022-11-18T03:09:28.500Z,25.22
2022-11-18T03:12:16.865Z,27.39
2022-11-18T03:14:57.639Z,26.92
2022-11-18T03:17:33.069Z,27.36
2022-11-18T03:20:25.899Z,25.04
2022-11-18T03:23:30.712Z,25.78
2022-11-18T03:26:21.262Z,27.19
2022-11-18T03:29:01.584Z,27.19
2022-11-18T03:31:42.713Z,24.83
2022-11-18T03:34:20.820Z,25.83
2022-11-18T03:36:58.329Z,23.74
2022-11-18T03:39:30.719Z,24.93
2022-11-18T03:42:11.681Z,21.12
2022-11-18T03:44:48.268Z,22.78
2022-11-18T03:47:34.860Z,22.85
2022-11-18T03:50:17.723Z,27.55
2022-11-18T03:52:45.562Z,25.64
2022-11-18T03:55:22.057Z,23.69
2022-11-18T03:58:04.908Z,23.35
2022-11-18T04:00:42.547Z,24.11
2022-11-18T04:03:10.298Z,22.45
2022-11-18T04:05:41.295Z,29.49
2022-11-18T04:08:15.078Z,27.08
2022-11-18T04:10:59.819Z,25.31
2022-11-18T04:13:32.909Z,22.77
2022-11-18T04:16:00.454Z,22.38
2022-11-18T04:18:28.121Z,25.65
2022-11-18T04:20:58.118Z,27.13
2022-11-18T04:23:24.991Z,24.24
2022-11-18T04:25:51.856Z,24.88
2022-11-18T04:28:19.147Z,23.71
2022-11-18T04:30:46.420Z,26.79
2022-11-18T04:33:13.721Z,25.09
2022-11-18T04:35:40.574Z,22.55
2022-11-18T04:38:07.882Z,24.47
2022-11-18T04:40:35.145Z,22.83
2022-11-18T04:43:02.430Z,21.45
2022-11-18T04:45:29.511Z,22.06
2022-11-18T04:48:03.112Z,22.51
2022-11-18T04:50:30.540Z,22.35
2022-11-18T04:52:57.858Z,22.06
2022-11-18T04:55:27.150Z,22.44
2022-11-18T04:57:54.463Z,22.65
2022-11-18T05:00:22.381Z,22.17
2022-11-18T05:02:50.022Z,19.80
2022-11-18T05:05:16.991Z,21.92
2022-11-18T05:07:44.306Z,22.36
2022-11-18T05:10:11.718Z,22.45
2022-11-18T05:12:52.205Z,22.43
2022-11-18T05:15:22.392Z,22.61
2022-11-18T05:17:50.233Z,20.35
2022-11-18T05:20:17.571Z,20.89
2022-11-18T05:22:44.860Z,21.74
2022-11-18T05:25:12.144Z,22.95
2022-11-18T05:27:39.456Z,22.37
2022-11-18T05:30:09.345Z,23.48
2022-11-18T05:32:36.650Z,23.74
2022-11-18T05:35:04.069Z,22.81
2022-11-18T05:37:33.606Z,23.79
2022-11-18T05:40:00.948Z,22.46
2022-11-18T05:42:46.934Z,22.32
2022-11-18T05:45:15.937Z,21.70
2022-11-18T05:48:01.465Z,22.44
2022-11-18T05:50:28.818Z,22.79
2022-11-18T05:52:56.515Z,21.63
2022-11-18T05:55:29.051Z,23.38
2022-11-18T05:57:56.350Z,22.73
2022-11-18T06:00:23.727Z,22.39
2022-11-18T06:02:52.984Z,22.02
2022-11-18T06:05:22.220Z,22.51
2022-11-18T06:07:49.550Z,21.84
2022-11-18T06:10:28.561Z,21.92
2022-11-18T06:13:00.793Z,22.65
2022-11-18T06:15:31.526Z,22.13
2022-11-18T06:18:05.706Z,22.52
2022-11-18T06:20:35.790Z,23.18
2022-11-18T06:23:03.155Z,22.65
2022-11-18T06:25:30.721Z,22.01
2022-11-18T06:28:01.513Z,23.59
2022-11-18T06:30:28.432Z,22.69
2022-11-18T06:32:55.925Z,22.16
2022-11-18T06:35:23.334Z,22.75
2022-11-18T06:37:50.598Z,22.67
2022-11-18T06:40:18.024Z,23.21
2022-11-18T06:43:04.005Z,22.67
2022-11-18T06:45:31.453Z,22.61
2022-11-18T06:48:02.488Z,22.70
2022-11-18T06:50:30.418Z,22.72
2022-11-18T06:53:00.366Z,23.00
2022-11-18T06:55:27.946Z,22.45
2022-11-18T06:57:56.925Z,22.43
2022-11-18T07:00:24.316Z,22.16
2022-11-18T07:02:51.554Z,22.16
2022-11-18T07:05:18.903Z,21.26
2022-11-18T07:07:45.929Z,20.33
2022-11-18T07:10:13.396Z,21.44
2022-11-18T07:12:40.686Z,20.24
2022-11-18T07:15:08.413Z,20.36
2022-11-18T07:17:35.343Z,20.23
2022-11-18T07:20:03.385Z,21.08
2022-11-18T07:22:30.898Z,21.60
2022-11-18T07:24:58.588Z,20.81
2022-11-18T07:27:26.008Z,21.35
2022-11-18T07:29:53.105Z,21.16
2022-11-18T07:32:20.508Z,21.66
2022-11-18T07:34:47.949Z,21.91
2022-11-18T07:37:15.334Z,21.85
2022-11-18T07:39:42.757Z,21.91
2022-11-18T07:42:10.270Z,21.01
2022-11-18T07:44:37.685Z,20.85
2022-11-18T07:47:05.174Z,20.19
2022-11-18T07:49:32.599Z,19.74
2022-11-18T07:52:00.123Z,20.32
2022-11-18T07:54:27.558Z,30.25
2022-11-18T07:56:54.998Z,26.89
2022-11-18T07:59:22.468Z,24.28
2022-11-18T08:01:49.966Z,25.21
2022-11-18T08:04:17.981Z,24.29
2022-11-18T08:06:45.629Z,22.74
2022-11-18T08:09:13.116Z,23.50
2022-11-18T08:11:40.988Z,23.52
2022-11-18T08:14:08.868Z,23.87
2022-11-18T08:16:39.479Z,23.86
2022-11-18T08:19:12.650Z,22.97
2022-11-18T08:21:42.537Z,23.07
2022-11-18T08:24:10.467Z,23.53
2022-11-18T08:26:37.869Z,22.94
2022-11-18T08:29:05.173Z,22.84
2022-11-18T08:31:32.705Z,23.38
2022-11-18T08:34:03.828Z,23.83
2022-11-18T08:36:35.065Z,23.89
2022-11-18T08:39:06.017Z,24.01
2022-11-18T08:41:43.491Z,23.96
2022-11-18T08:44:15.072Z,23.68
2022-11-18T08:46:48.119Z,23.32
2022-11-18T08:49:16.126Z,23.91
2022-11-18T08:51:43.755Z,23.58
2022-11-18T08:54:11.058Z,22.54
2022-11-18T08:56:39.095Z,22.76
2022-11-18T08:59:06.784Z,23.01
2022-11-18T09:01:34.624Z,23.39
2022-11-18T09:04:01.703Z,22.84
2022-11-18T09:06:29.064Z,22.78
2022-11-18T09:08:57.364Z,22.51
2022-11-18T09:11:27.486Z,22.58
2022-11-18T09:16:47.151Z,22.64
2022-11-18T09:20:06.986Z,22.68
2022-11-18T09:22:37.795Z,22.63
2022-11-18T09:25:05.512Z,21.81
2022-11-18T09:27:32.857Z,22.24
2022-11-18T09:30:00.276Z,22.05
2022-11-18T09:32:27.840Z,22.24
2022-11-18T09:34:55.151Z,22.20
2022-11-18T09:37:22.513Z,21.34
2022-11-18T09:39:50.186Z,21.86
2022-11-18T09:42:23.534Z,22.66
2022-11-18T09:45:28.426Z,22.40
2022-11-18T09:48:00.941Z,21.88
2022-11-18T09:53:21.728Z,22.91
2022-11-18T09:55:51.159Z,22.64
2022-11-18T09:58:36.642Z,22.73
2022-11-18T10:01:14.104Z,22.61
2022-11-18T10:03:44.320Z,22.64
2022-11-18T10:06:23.848Z,22.95
2022-11-18T10:09:21.100Z,22.81
2022-11-18T10:12:25.714Z,22.52
2022-11-18T10:15:05.175Z,21.36
2022-11-18T10:17:46.892Z,21.53
2022-11-18T10:20:41.833Z,22.02
2022-11-18T10:23:18.712Z,22.57
2022-11-18T10:25:46.017Z,22.37
2022-11-18T10:28:29.603Z,21.70
2022-11-18T10:31:09.915Z,21.92
2022-11-18T10:33:38.115Z,22.21
2022-11-18T10:36:30.468Z,22.48
2022-11-18T10:39:15.752Z,21.90
2022-11-18T10:42:06.501Z,21.52
2022-11-18T10:44:40.017Z,21.50
2022-11-18T10:47:24.072Z,21.96
2022-11-18T10:49:52.965Z,21.16
2022-11-18T10:52:20.398Z,21.07
2022-11-18T10:55:20.013Z,22.20
2022-11-18T10:57:48.222Z,20.22
2022-11-18T11:00:42.577Z,21.42
2022-11-18T11:03:38.872Z,21.30
2022-11-18T11:06:23.281Z,21.70
2022-11-18T11:09:06.167Z,22.00
2022-11-18T11:11:40.326Z,21.61
2022-11-18T11:14:32.421Z,21.93
2022-11-18T11:17:15.919Z,21.92
2022-11-18T11:20:06.257Z,21.54
2022-11-18T11:22:33.636Z,21.36
2022-11-18T11:25:00.713Z,20.04
2022-11-18T11:31:24.047Z,22.36
2022-11-18T11:34:11.222Z,21.30
2022-11-18T11:37:04.438Z,21.73
2022-11-18T11:39:48.825Z,20.98
2022-11-18T11:42:45.807Z,21.42
2022-11-18T11:45:41.664Z,20.52
2022-11-18T11:48:56.263Z,21.88
2022-11-18T11:51:33.588Z,21.38
2022-11-18T11:54:41.895Z,22.02
2022-11-18T11:57:42.244Z,21.98
2022-11-18T12:00:15.314Z,21.79
2022-11-18T12:03:17.505Z,22.44
2022-11-18T12:05:45.884Z,21.94
2022-11-18T12:08:26.261Z,20.54
2022-11-18T12:11:03.742Z,20.60
2022-11-18T12:14:04.291Z,20.35
2022-11-18T12:17:03.800Z,20.94
2022-11-18T12:19:31.245Z,20.76
2022-11-18T12:22:05.150Z,21.59
2022-11-18T12:24:38.389Z,22.06
2022-11-18T12:27:30.279Z,21.99
2022-11-18T12:30:03.895Z,21.88
2022-11-18T12:32:43.333Z,22.39
2022-11-18T12:35:13.209Z,22.76
2022-11-18T12:37:45.006Z,21.64
2022-11-18T12:40:48.779Z,22.34
2022-11-18T12:43:50.745Z,22.34
2022-11-18T12:46:26.880Z,21.88
2022-11-18T12:48:54.226Z,21.00
2022-11-18T12:51:21.082Z,21.64
2022-11-18T12:53:54.698Z,22.35
2022-11-18T12:56:27.557Z,21.34
2022-11-18T12:58:57.921Z,20.87
2022-11-18T13:01:31.994Z,22.13
2022-11-18T13:04:19.662Z,21.37
2022-11-18T13:06:47.640Z,22.50
2022-11-18T13:09:23.080Z,22.68
2022-11-18T13:12:08.725Z,22.39
2022-11-18T13:14:59.822Z,21.79
2022-11-18T13:17:58.698Z,22.11
2022-11-18T13:20:35.395Z,21.94
2022-11-18T13:23:32.980Z,22.33
2022-11-18T13:26:06.821Z,22.85
2022-11-18T13:29:13.477Z,21.92
2022-11-18T13:32:10.069Z,22.79
2022-11-18T13:34:51.398Z,22.24
2022-11-18T13:37:28.578Z,23.25
2022-11-18T13:39:56.238Z,22.56
2022-11-18T13:42:32.540Z,23.10
2022-11-18T13:45:01.923Z,22.33
2022-11-18T13:47:39.510Z,22.76
2022-11-18T13:50:25.248Z,23.49
2022-11-18T13:53:34.171Z,23.55
2022-11-18T13:56:07.664Z,23.27
2022-11-18T13:59:10.276Z,23.06
2022-11-18T14:01:33.415Z,23.60
2022-11-18T14:04:08.137Z,21.93
2022-11-18T14:06:41.130Z,22.28
2022-11-18T14:09:25.858Z,21.73
2022-11-18T14:12:23.477Z,22.63
2022-11-18T14:14:50.856Z,21.43
2022-11-18T14:17:27.180Z,22.99
2022-11-18T14:19:58.012Z,22.60
2022-11-18T14:22:27.798Z,21.86
2022-11-18T14:25:21.041Z,22.23
2022-11-18T14:27:54.108Z,23.98
2022-11-18T14:30:36.762Z,23.03
2022-11-18T14:33:17.438Z,23.46
2022-11-18T14:35:58.192Z,23.11
2022-11-18T14:39:11.367Z,23.18
2022-11-18T14:41:49.181Z,22.59
2022-11-18T14:44:22.438Z,21.84
2022-11-18T14:49:59.676Z,20.60
2022-11-18T14:52:33.119Z,22.28
2022-11-18T14:55:02.385Z,22.55
2022-11-18T14:57:34.858Z,23.81
2022-11-18T15:00:18.159Z,22.89
2022-11-18T15:02:45.996Z,21.24
2022-11-18T15:06:01.775Z,23.19
2022-11-18T15:11:38.928Z,22.22
2022-11-18T15:17:35.762Z,21.54
2022-11-18T15:20:23.428Z,22.60
2022-11-18T15:22:53.919Z,22.42
2022-11-18T15:25:21.297Z,20.86
2022-11-18T15:27:48.926Z,21.88
2022-11-18T15:30:16.995Z,21.85
2022-11-18T15:32:44.765Z,21.34
2022-11-18T15:35:13.986Z,21.82
2022-11-18T15:37:43.075Z,22.53
2022-11-18T15:40:11.585Z,20.76
2022-11-18T15:42:48.836Z,21.72
2022-11-18T15:45:19.248Z,21.65
2022-11-18T15:47:47.199Z,22.58
2022-11-18T15:50:14.802Z,20.68
2022-11-18T15:52:42.253Z,22.18
2022-11-18T15:55:10.322Z,21.66
2022-11-18T15:57:38.623Z,20.62
2022-11-18T16:00:13.657Z,23.38
2022-11-18T16:02:41.022Z,22.81
2022-11-18T16:05:10.006Z,22.70
2022-11-18T16:07:37.734Z,23.21
2022-11-18T16:13:54.286Z,24.43
2022-11-18T16:16:25.828Z,23.58
2022-11-18T16:19:44.031Z,24.10
2022-11-18T16:22:20.993Z,23.38
2022-11-18T16:27:45.893Z,22.78
2022-11-18T16:31:00.001Z,23.39
2022-11-18T16:33:27.201Z,22.64
2022-11-18T16:35:54.569Z,22.40
2022-11-18T16:38:21.873Z,22.92
2022-11-18T16:40:56.552Z,23.58
2022-11-18T16:43:24.312Z,23.61
2022-11-18T16:45:55.309Z,23.54
2022-11-18T16:49:05.219Z,23.23
2022-11-18T16:51:51.750Z,23.67
2022-11-18T16:54:27.970Z,23.17
2022-11-18T16:56:57.782Z,23.72
2022-11-18T16:59:28.808Z,23.32
2022-11-18T17:01:58.669Z,23.60
2022-11-18T17:04:28.142Z,23.13
2022-11-18T17:06:55.997Z,23.64
2022-11-18T17:09:24.427Z,23.93
2022-11-18T17:11:54.241Z,23.87
2022-11-18T17:14:22.073Z,23.39
2022-11-18T17:16:50.305Z,23.38
2022-11-18T17:19:21.141Z,22.51
2022-11-18T17:21:49.173Z,22.84
2022-11-18T17:24:22.201Z,23.45
2022-11-18T17:26:50.812Z,22.38
2022-11-18T17:29:18.651Z,23.28
2022-11-18T17:31:46.211Z,23.65
2022-11-18T17:34:14.542Z,23.05
2022-11-18T17:36:42.316Z,22.79
2022-11-18T17:39:11.433Z,23.27
2022-11-18T17:41:57.707Z,22.91
2022-11-18T17:44:24.826Z,22.84
2022-11-18T17:46:52.356Z,22.96
2022-11-18T17:49:22.017Z,23.19
2022-11-18T17:51:51.052Z,22.84
2022-11-18T17:54:19.519Z,22.51
2022-11-18T17:56:47.210Z,22.75
2022-11-18T17:59:15.660Z,22.61
2022-11-18T18:01:44.243Z,22.95
2022-11-18T18:04:14.299Z,22.17
2022-11-18T18:06:41.461Z,21.44
2022-11-18T18:09:08.735Z,22.41
2022-11-18T18:11:36.156Z,21.97
2022-11-18T18:14:12.537Z,21.07
2022-11-18T18:16:51.019Z,22.50
2022-11-18T18:19:21.263Z,22.21
2022-11-18T18:21:48.962Z,21.28
2022-11-18T18:24:18.166Z,20.83
2022-11-18T18:26:45.902Z,22.11
2022-11-18T18:29:13.428Z,22.02
2022-11-18T18:31:40.841Z,21.75
2022-11-18T18:34:08.249Z,22.05
2022-11-18T18:36:35.391Z,21.82
2022-11-18T18:39:02.941Z,21.46
2022-11-18T18:41:31.215Z,21.54
2022-11-18T18:43:59.012Z,22.31
2022-11-18T18:46:33.947Z,22.26
2022-11-18T18:49:02.944Z,22.34
2022-11-18T18:51:36.352Z,21.07
2022-11-18T18:54:04.300Z,21.94
2022-11-18T18:56:31.890Z,22.01
2022-11-18T18:58:59.506Z,22.00
2022-11-18T19:01:28.256Z,21.51
2022-11-18T19:03:58.275Z,20.87
2022-11-18T19:06:51.639Z,20.41
2022-11-18T19:09:14.634Z,20.84
2022-11-18T19:12:00.586Z,20.20
2022-11-18T19:14:28.240Z,21.38
2022-11-18T19:16:56.313Z,20.29
2022-11-18T19:19:45.781Z,19.66
2022-11-18T19:22:15.414Z,21.55
2022-11-18T19:24:49.718Z,21.02
2022-11-18T19:27:19.134Z,21.41
2022-11-18T19:29:46.676Z,21.18
2022-11-18T19:32:14.480Z,20.48
2022-11-18T19:34:41.858Z,21.28
2022-11-18T19:37:09.220Z,21.28
2022-11-18T19:39:40.619Z,19.56
2022-11-18T19:42:10.782Z,19.42
2022-11-18T19:44:38.938Z,20.70
2022-11-18T19:47:06.420Z,21.04
2022-11-18T19:49:33.880Z,21.43
2022-11-18T19:52:01.617Z,21.51
2022-11-18T19:54:29.205Z,21.66
2022-11-18T19:56:56.690Z,21.94
2022-11-18T19:59:24.101Z,22.17
2022-11-18T20:01:51.576Z,21.18
2022-11-18T20:04:19.139Z,21.54
2022-11-18T20:06:46.719Z,22.11
2022-11-18T20:09:14.119Z,21.82
2022-11-18T20:11:42.934Z,20.81
2022-11-18T20:14:11.856Z,22.08
2022-11-18T20:16:39.416Z,20.89
2022-11-18T20:19:10.695Z,21.35
2022-11-18T20:21:39.071Z,22.36
2022-11-18T20:24:08.210Z,21.37
2022-11-18T20:26:38.363Z,21.81
2022-11-18T20:29:07.214Z,19.94
2022-11-18T20:31:36.281Z,21.05
2022-11-18T20:34:03.841Z,21.41
2022-11-18T20:36:36.349Z,21.10
2022-11-18T20:39:08.303Z,21.44
2022-11-18T20:41:36.473Z,21.80
2022-11-18T20:44:06.215Z,21.58
2022-11-18T20:46:34.750Z,21.69
2022-11-18T20:49:02.287Z,19.38
2022-11-18T20:51:29.997Z,21.04
2022-11-18T20:53:59.738Z,20.30
2022-11-18T20:56:28.098Z,19.94
2022-11-18T20:58:57.916Z,21.41
2022-11-18T21:01:28.536Z,22.43
2022-11-18T21:04:01.518Z,22.22
2022-11-18T21:06:31.139Z,22.14
2022-11-18T21:09:02.547Z,22.45
2022-11-18T21:11:32.131Z,22.41
2022-11-18T21:14:23.314Z,21.42
2022-11-18T21:16:52.896Z,20.31
2022-11-18T21:19:20.726Z,20.64
2022-11-18T21:21:49.179Z,21.57
2022-11-18T21:24:19.988Z,21.04
2022-11-18T21:26:49.788Z,21.33
2022-11-18T21:29:18.273Z,21.62
2022-11-18T21:31:47.046Z,20.87
2022-11-18T21:34:15.300Z,20.28
2022-11-18T21:36:50.415Z,21.38
2022-11-18T21:39:24.603Z,22.26
2022-11-18T21:41:57.009Z,21.68
2022-11-18T21:44:26.039Z,21.50
2022-11-18T21:46:56.847Z,19.44
2022-11-18T21:49:24.409Z,20.89
2022-11-18T21:51:51.866Z,21.64
2022-11-18T21:54:19.234Z,20.91
2022-11-18T21:56:46.724Z,20.23
2022-11-18T21:59:14.156Z,21.32
2022-11-18T22:01:41.678Z,21.47
2022-11-18T22:04:29.022Z,20.08
2022-11-18T22:06:56.423Z,21.34
2022-11-18T22:09:24.079Z,21.25
2022-11-18T22:11:51.577Z,21.42
2022-11-18T22:14:18.991Z,20.48
2022-11-18T22:16:46.329Z,20.49
2022-11-18T22:19:13.849Z,19.60
2022-11-18T22:21:41.511Z,20.30
2022-11-18T22:24:09.153Z,20.76
2022-11-18T22:26:36.521Z,20.33
2022-11-18T22:29:03.870Z,19.66
2022-11-18T22:31:31.183Z,19.83
2022-11-18T22:33:58.512Z,20.28
2022-11-18T22:36:27.080Z,19.03
2022-11-18T22:38:54.957Z,19.55
2022-11-18T22:41:44.246Z,20.14
2022-11-18T22:44:15.759Z,19.44
2022-11-18T22:46:45.058Z,19.55
2022-11-18T22:49:12.882Z,20.43
2022-11-18T22:51:40.834Z,21.13
2022-11-18T22:56:56.470Z,20.06
2022-11-18T22:59:24.500Z,19.18
2022-11-18T23:01:52.064Z,20.55
2022-11-18T23:04:19.530Z,20.21
2022-11-18T23:06:48.158Z,19.34
2022-11-18T23:09:15.566Z,19.37
2022-11-18T23:12:03.588Z,20.79
2022-11-18T23:14:31.428Z,20.12
2022-11-18T23:16:58.819Z,19.27
2022-11-18T23:19:32.143Z,21.07
2022-11-18T23:21:59.583Z,20.59
2022-11-18T23:24:26.924Z,19.85
2022-11-18T23:26:54.325Z,20.80
2022-11-18T23:29:22.221Z,22.07
2022-11-18T23:31:49.889Z,21.94
2022-11-18T23:34:17.522Z,22.01
2022-11-18T23:36:44.891Z,21.87
2022-11-18T23:39:12.978Z,20.73
2022-11-18T23:41:40.689Z,20.85
2022-11-18T23:44:08.010Z,20.77
2022-11-18T23:46:36.043Z,21.15
2022-11-18T23:49:07.071Z,21.56
2022-11-18T23:51:34.392Z,21.64
2022-11-18T23:54:01.814Z,21.36
2022-11-18T23:56:30.883Z,20.72
2022-11-18T23:59:00.196Z,20.97
